sensor_id;sensor_type;location;lat;lon;timestamp;temperature;humidity
57833;DHT22;43667;53.036;6.740;2022-11-15T00:00:30;7.30;99.90
57833;DHT22;43667;53.036;6.740;2022-11-15T00:02:55;7.20;99.90
57833;DHT22;43667;53.036;6.740;2022-11-15T00:05:21;7.20;99.90
57833;DHT22;43667;53.036;6.740;2022-11-15T00:07:47;7.20;99.90
57833;DHT22;43667;53.036;6.740;2022-11-15T00:10:12;7.10;99.90
57833;DHT22;43667;53.036;6.740;2022-11-15T00:12:38;7.10;99.90
57833;DHT22;43667;53.036;6.740;2022-11-15T00:15:04;7.00;99.90
57833;DHT22;43667;53.036;6.740;2022-11-15T00:17:30;7.00;99.90
57833;DHT22;43667;53.036;6.740;2022-11-15T00:19:56;7.00;99.90
57833;DHT22;43667;53.036;6.740;2022-11-15T00:22:21;6.90;99.90
57833;DHT22;43667;53.036;6.740;2022-11-15T00:24:47;6.90;99.90
57833;DHT22;43667;53.036;6.740;2022-11-15T00:27:13;6.80;99.90
57833;DHT22;43667;53.036;6.740;2022-11-15T00:29:41;6.70;99.90
57833;DHT22;43667;53.036;6.740;2022-11-15T00:32:11;6.70;99.90
57833;DHT22;43667;53.036;6.740;2022-11-15T00:34:37;6.60;99.90
57833;DHT22;43667;53.036;6.740;2022-11-15T00:37:03;6.60;99.90
57833;DHT22;43667;53.036;6.740;2022-11-15T00:39:28;6.60;99.90
57833;DHT22;43667;53.036;6.740;2022-11-15T00:41:54;6.60;99.90
57833;DHT22;43667;53.036;6.740;2022-11-15T00:44:19;6.60;99.90
57833;DHT22;43667;53.036;6.740;2022-11-15T00:46:45;6.60;99.90
57833;DHT22;43667;53.036;6.740;2022-11-15T00:49:11;6.60;99.90
57833;DHT22;43667;53.036;6.740;2022-11-15T00:51:36;6.60;99.90
57833;DHT22;43667;53.036;6.740;2022-11-15T00:54:02;6.60;99.90
57833;DHT22;43667;53.036;6.740;2022-11-15T00:56:27;6.60;99.90
57833;DHT22;43667;53.036;6.740;2022-11-15T00:58:53;6.70;99.90
57833;DHT22;43667;53.036;6.740;2022-11-15T01:01:19;6.70;99.90
57833;DHT22;43667;53.036;6.740;2022-11-15T01:03:45;6.70;99.90
57833;DHT22;43667;53.036;6.740;2022-11-15T01:06:10;6.80;99.90
57833;DHT22;43667;53.036;6.740;2022-11-15T01:08:41;6.80;99.90
57833;DHT22;43667;53.036;6.740;2022-11-15T01:11:09;6.90;99.90
57833;DHT22;43667;53.036;6.740;2022-11-15T01:13:36;6.90;99.90
57833;DHT22;43667;53.036;6.740;2022-11-15T01:16:14;7.00;99.90
57833;DHT22;43667;53.036;6.740;2022-11-15T01:18:40;7.00;99.90
57833;DHT22;43667;53.036;6.740;2022-11-15T01:21:08;7.00;99.90
57833;DHT22;43667;53.036;6.740;2022-11-15T01:23:34;7.10;99.90
57833;DHT22;43667;53.036;6.740;2022-11-15T01:26:03;7.10;99.90
57833;DHT22;43667;53.036;6.740;2022-11-15T01:28:34;7.10;99.90
57833;DHT22;43667;53.036;6.740;2022-11-15T01:31:06;7.20;99.90
57833;DHT22;43667;53.036;6.740;2022-11-15T01:33:34;7.20;99.90
57833;DHT22;43667;53.036;6.740;2022-11-15T01:36:13;7.20;99.90
57833;DHT22;43667;53.036;6.740;2022-11-15T01:38:39;7.30;99.90
57833;DHT22;43667;53.036;6.740;2022-11-15T01:41:05;7.30;99.90
57833;DHT22;43667;53.036;6.740;2022-11-15T01:43:33;7.40;99.90
57833;DHT22;43667;53.036;6.740;2022-11-15T01:46:14;7.40;99.90
57833;DHT22;43667;53.036;6.740;2022-11-15T01:48:44;7.40;99.90
57833;DHT22;43667;53.036;6.740;2022-11-15T01:51:12;7.40;99.90
57833;DHT22;43667;53.036;6.740;2022-11-15T01:53:41;7.40;99.90
57833;DHT22;43667;53.036;6.740;2022-11-15T01:56:11;7.40;99.90
57833;DHT22;43667;53.036;6.740;2022-11-15T01:58:37;7.40;99.90
57833;DHT22;43667;53.036;6.740;2022-11-15T02:01:04;7.40;99.90
57833;DHT22;43667;53.036;6.740;2022-11-15T02:03:36;7.40;99.90
57833;DHT22;43667;53.036;6.740;2022-11-15T02:06:06;7.40;99.90
57833;DHT22;43667;53.036;6.740;2022-11-15T02:08:31;7.40;99.90
57833;DHT22;43667;53.036;6.740;2022-11-15T02:10:57;7.40;99.90
57833;DHT22;43667;53.036;6.740;2022-11-15T02:13:23;7.40;99.90
57833;DHT22;43667;53.036;6.740;2022-11-15T02:16:10;7.50;99.90
57833;DHT22;43667;53.036;6.740;2022-11-15T02:18:44;7.50;99.90
57833;DHT22;43667;53.036;6.740;2022-11-15T02:21:52;7.50;99.90
57833;DHT22;43667;53.036;6.740;2022-11-15T02:32:27;7.50;99.90
57833;DHT22;43667;53.036;6.740;2022-11-15T02:37:46;7.50;99.90
57833;DHT22;43667;53.036;6.740;2022-11-15T02:43:10;7.60;99.90
57833;DHT22;43667;53.036;6.740;2022-11-15T02:49:26;7.60;99.90
57833;DHT22;43667;53.036;6.740;2022-11-15T02:51:55;7.60;99.90
57833;DHT22;43667;53.036;6.740;2022-11-15T02:54:26;7.60;99.90
57833;DHT22;43667;53.036;6.740;2022-11-15T02:56:55;7.60;99.90
57833;DHT22;43667;53.036;6.740;2022-11-15T03:05:37;7.70;99.90
57833;DHT22;43667;53.036;6.740;2022-11-15T03:13:30;7.70;99.90
57833;DHT22;43667;53.036;6.740;2022-11-15T03:16:09;7.70;99.90
57833;DHT22;43667;53.036;6.740;2022-11-15T03:18:40;7.80;99.90
57833;DHT22;43667;53.036;6.740;2022-11-15T03:21:08;7.80;99.90
57833;DHT22;43667;53.036;6.740;2022-11-15T03:23:37;7.80;99.90
57833;DHT22;43667;53.036;6.740;2022-11-15T03:26:07;7.80;99.90
57833;DHT22;43667;53.036;6.740;2022-11-15T03:31:10;7.90;99.90
57833;DHT22;43667;53.036;6.740;2022-11-15T03:33:57;7.80;99.90
57833;DHT22;43667;53.036;6.740;2022-11-15T03:36:25;7.90;99.90
57833;DHT22;43667;53.036;6.740;2022-11-15T03:38:54;7.90;99.90
57833;DHT22;43667;53.036;6.740;2022-11-15T03:47:11;7.90;99.90
57833;DHT22;43667;53.036;6.740;2022-11-15T03:49:42;7.90;99.90
57833;DHT22;43667;53.036;6.740;2022-11-15T03:52:10;7.90;99.90
57833;DHT22;43667;53.036;6.740;2022-11-15T03:54:36;7.90;99.90
57833;DHT22;43667;53.036;6.740;2022-11-15T03:57:01;8.00;99.90
57833;DHT22;43667;53.036;6.740;2022-11-15T03:59:27;7.90;99.90
57833;DHT22;43667;53.036;6.740;2022-11-15T04:01:52;8.00;99.90
57833;DHT22;43667;53.036;6.740;2022-11-15T04:04:18;8.00;99.90
57833;DHT22;43667;53.036;6.740;2022-11-15T04:06:43;8.00;99.90
57833;DHT22;43667;53.036;6.740;2022-11-15T04:09:09;8.00;99.90
57833;DHT22;43667;53.036;6.740;2022-11-15T04:11:34;8.00;99.90
57833;DHT22;43667;53.036;6.740;2022-11-15T04:14:00;8.00;99.90
57833;DHT22;43667;53.036;6.740;2022-11-15T04:16:26;8.10;99.90
57833;DHT22;43667;53.036;6.740;2022-11-15T04:18:51;8.00;99.90
57833;DHT22;43667;53.036;6.740;2022-11-15T04:21:37;8.10;99.90
57833;DHT22;43667;53.036;6.740;2022-11-15T04:24:21;8.10;99.90
57833;DHT22;43667;53.036;6.740;2022-11-15T04:26:46;8.10;99.90
57833;DHT22;43667;53.036;6.740;2022-11-15T04:29:12;8.10;99.90
57833;DHT22;43667;53.036;6.740;2022-11-15T04:31:56;8.20;99.90
57833;DHT22;43667;53.036;6.740;2022-11-15T04:34:22;8.10;99.90
57833;DHT22;43667;53.036;6.740;2022-11-15T04:36:47;8.20;99.90
57833;DHT22;43667;53.036;6.740;2022-11-15T04:39:32;8.20;99.90
57833;DHT22;43667;53.036;6.740;2022-11-15T04:41:57;8.20;99.90
57833;DHT22;43667;53.036;6.740;2022-11-15T04:44:23;8.30;99.90
57833;DHT22;43667;53.036;6.740;2022-11-15T04:46:48;8.30;99.90
57833;DHT22;43667;53.036;6.740;2022-11-15T04:49:14;8.30;99.90
57833;DHT22;43667;53.036;6.740;2022-11-15T04:51:39;8.40;99.90
57833;DHT22;43667;53.036;6.740;2022-11-15T04:54:05;8.40;99.90
57833;DHT22;43667;53.036;6.740;2022-11-15T04:56:31;8.40;99.90
57833;DHT22;43667;53.036;6.740;2022-11-15T04:58:56;8.40;99.90
57833;DHT22;43667;53.036;6.740;2022-11-15T05:01:22;8.50;99.90
57833;DHT22;43667;53.036;6.740;2022-11-15T05:03:47;8.50;99.90
57833;DHT22;43667;53.036;6.740;2022-11-15T05:06:31;8.50;99.90
57833;DHT22;43667;53.036;6.740;2022-11-15T05:08:57;8.50;99.90
57833;DHT22;43667;53.036;6.740;2022-11-15T05:11:23;8.50;99.90
57833;DHT22;43667;53.036;6.740;2022-11-15T05:13:48;8.60;99.90
57833;DHT22;43667;53.036;6.740;2022-11-15T05:16:14;8.60;99.90
57833;DHT22;43667;53.036;6.740;2022-11-15T05:18:40;8.60;99.90
57833;DHT22;43667;53.036;6.740;2022-11-15T05:21:10;8.60;99.90
57833;DHT22;43667;53.036;6.740;2022-11-15T05:23:37;8.70;99.90
57833;DHT22;43667;53.036;6.740;2022-11-15T05:26:04;8.70;99.90
57833;DHT22;43667;53.036;6.740;2022-11-15T05:28:30;8.70;99.90
57833;DHT22;43667;53.036;6.740;2022-11-15T05:31:23;8.80;99.90
57833;DHT22;43667;53.036;6.740;2022-11-15T05:33:50;8.80;99.90
57833;DHT22;43667;53.036;6.740;2022-11-15T05:36:35;8.80;99.90
57833;DHT22;43667;53.036;6.740;2022-11-15T05:39:01;8.80;99.90
57833;DHT22;43667;53.036;6.740;2022-11-15T05:41:34;8.70;99.90
57833;DHT22;43667;53.036;6.740;2022-11-15T05:44:01;8.80;99.90
57833;DHT22;43667;53.036;6.740;2022-11-15T05:46:28;8.80;99.90
57833;DHT22;43667;53.036;6.740;2022-11-15T05:48:55;8.80;99.90
57833;DHT22;43667;53.036;6.740;2022-11-15T05:51:22;8.80;99.90
57833;DHT22;43667;53.036;6.740;2022-11-15T05:53:48;8.80;99.90
57833;DHT22;43667;53.036;6.740;2022-11-15T05:56:14;8.80;99.90
57833;DHT22;43667;53.036;6.740;2022-11-15T05:58:40;8.80;99.90
57833;DHT22;43667;53.036;6.740;2022-11-15T06:01:06;8.80;99.90
57833;DHT22;43667;53.036;6.740;2022-11-15T06:03:32;8.80;99.90
57833;DHT22;43667;53.036;6.740;2022-11-15T06:05:57;8.90;99.90
57833;DHT22;43667;53.036;6.740;2022-11-15T06:08:23;8.90;99.90
57833;DHT22;43667;53.036;6.740;2022-11-15T06:10:48;8.90;99.90
57833;DHT22;43667;53.036;6.740;2022-11-15T06:13:14;8.90;99.90
57833;DHT22;43667;53.036;6.740;2022-11-15T06:15:39;9.00;99.90
57833;DHT22;43667;53.036;6.740;2022-11-15T06:18:05;9.00;99.90
57833;DHT22;43667;53.036;6.740;2022-11-15T06:20:31;9.00;99.90
57833;DHT22;43667;53.036;6.740;2022-11-15T06:22:58;9.00;99.90
57833;DHT22;43667;53.036;6.740;2022-11-15T06:25:24;9.00;99.90
57833;DHT22;43667;53.036;6.740;2022-11-15T06:27:54;9.10;99.90
57833;DHT22;43667;53.036;6.740;2022-11-15T06:30:20;9.10;99.90
57833;DHT22;43667;53.036;6.740;2022-11-15T06:32:46;9.10;99.90
57833;DHT22;43667;53.036;6.740;2022-11-15T06:35:12;9.10;99.90
57833;DHT22;43667;53.036;6.740;2022-11-15T06:37:38;9.20;99.90
57833;DHT22;43667;53.036;6.740;2022-11-15T06:40:04;9.20;99.90
57833;DHT22;43667;53.036;6.740;2022-11-15T06:42:30;9.20;99.90
57833;DHT22;43667;53.036;6.740;2022-11-15T06:44:55;9.30;99.90
57833;DHT22;43667;53.036;6.740;2022-11-15T06:47:21;9.30;99.90
57833;DHT22;43667;53.036;6.740;2022-11-15T06:49:46;9.30;99.90
57833;DHT22;43667;53.036;6.740;2022-11-15T06:52:12;9.40;99.90
57833;DHT22;43667;53.036;6.740;2022-11-15T06:54:37;9.50;99.90
57833;DHT22;43667;53.036;6.740;2022-11-15T06:57:04;9.50;99.90
57833;DHT22;43667;53.036;6.740;2022-11-15T06:59:30;9.50;99.90
57833;DHT22;43667;53.036;6.740;2022-11-15T07:01:55;9.50;99.90
57833;DHT22;43667;53.036;6.740;2022-11-15T07:04:21;9.60;99.90
57833;DHT22;43667;53.036;6.740;2022-11-15T07:06:47;9.60;99.90
57833;DHT22;43667;53.036;6.740;2022-11-15T07:09:13;9.60;99.90
57833;DHT22;43667;53.036;6.740;2022-11-15T07:11:39;9.70;99.90
57833;DHT22;43667;53.036;6.740;2022-11-15T07:14:05;9.70;99.90
57833;DHT22;43667;53.036;6.740;2022-11-15T07:16:30;9.80;99.90
57833;DHT22;43667;53.036;6.740;2022-11-15T07:18:56;9.80;99.90
57833;DHT22;43667;53.036;6.740;2022-11-15T07:21:21;9.90;99.90
57833;DHT22;43667;53.036;6.740;2022-11-15T07:23:47;9.90;99.90
57833;DHT22;43667;53.036;6.740;2022-11-15T07:26:12;9.90;99.90
57833;DHT22;43667;53.036;6.740;2022-11-15T07:28:38;10.00;99.90
57833;DHT22;43667;53.036;6.740;2022-11-15T07:31:05;10.00;99.90
57833;DHT22;43667;53.036;6.740;2022-11-15T07:33:31;10.00;99.90
57833;DHT22;43667;53.036;6.740;2022-11-15T07:36:04;10.10;99.90
57833;DHT22;43667;53.036;6.740;2022-11-15T07:38:31;10.10;99.90
57833;DHT22;43667;53.036;6.740;2022-11-15T07:40:58;10.10;99.90
57833;DHT22;43667;53.036;6.740;2022-11-15T07:43:24;10.20;99.90
57833;DHT22;43667;53.036;6.740;2022-11-15T07:45:50;10.20;99.90
57833;DHT22;43667;53.036;6.740;2022-11-15T07:48:15;10.30;99.90
57833;DHT22;43667;53.036;6.740;2022-11-15T07:50:41;10.30;99.90
57833;DHT22;43667;53.036;6.740;2022-11-15T07:53:08;10.30;99.90
57833;DHT22;43667;53.036;6.740;2022-11-15T07:55:33;10.30;99.90
57833;DHT22;43667;53.036;6.740;2022-11-15T07:58:01;10.40;99.90
57833;DHT22;43667;53.036;6.740;2022-11-15T08:00:27;10.40;99.90
57833;DHT22;43667;53.036;6.740;2022-11-15T08:02:52;10.50;99.90
57833;DHT22;43667;53.036;6.740;2022-11-15T08:05:18;10.50;99.90
57833;DHT22;43667;53.036;6.740;2022-11-15T08:07:43;10.50;99.90
57833;DHT22;43667;53.036;6.740;2022-11-15T08:10:09;10.50;99.90
57833;DHT22;43667;53.036;6.740;2022-11-15T08:12:36;10.60;99.90
57833;DHT22;43667;53.036;6.740;2022-11-15T08:15:02;10.60;99.90
57833;DHT22;43667;53.036;6.740;2022-11-15T08:17:28;10.70;99.90
57833;DHT22;43667;53.036;6.740;2022-11-15T08:19:57;10.70;99.90
57833;DHT22;43667;53.036;6.740;2022-11-15T08:22:22;10.70;99.90
57833;DHT22;43667;53.036;6.740;2022-11-15T08:24:48;10.80;99.90
57833;DHT22;43667;53.036;6.740;2022-11-15T08:27:13;10.80;99.90
57833;DHT22;43667;53.036;6.740;2022-11-15T08:29:45;10.80;99.90
57833;DHT22;43667;53.036;6.740;2022-11-15T08:32:11;10.80;99.90
57833;DHT22;43667;53.036;6.740;2022-11-15T08:34:38;10.80;99.90
57833;DHT22;43667;53.036;6.740;2022-11-15T08:37:04;10.90;99.90
57833;DHT22;43667;53.036;6.740;2022-11-15T08:39:29;10.90;99.90
57833;DHT22;43667;53.036;6.740;2022-11-15T08:41:55;10.90;99.90
57833;DHT22;43667;53.036;6.740;2022-11-15T08:44:20;10.90;99.90
57833;DHT22;43667;53.036;6.740;2022-11-15T08:46:46;10.90;99.90
57833;DHT22;43667;53.036;6.740;2022-11-15T08:49:12;11.00;99.90
57833;DHT22;43667;53.036;6.740;2022-11-15T08:51:37;11.00;99.90
57833;DHT22;43667;53.036;6.740;2022-11-15T08:54:03;11.00;99.90
57833;DHT22;43667;53.036;6.740;2022-11-15T08:56:29;11.00;99.90
57833;DHT22;43667;53.036;6.740;2022-11-15T08:58:54;11.00;99.90
57833;DHT22;43667;53.036;6.740;2022-11-15T09:01:22;11.10;99.90
57833;DHT22;43667;53.036;6.740;2022-11-15T09:03:48;11.10;99.90
57833;DHT22;43667;53.036;6.740;2022-11-15T09:06:13;11.10;99.90
57833;DHT22;43667;53.036;6.740;2022-11-15T09:08:39;11.10;99.90
57833;DHT22;43667;53.036;6.740;2022-11-15T09:11:06;11.10;99.90
57833;DHT22;43667;53.036;6.740;2022-11-15T09:13:32;11.10;99.90
57833;DHT22;43667;53.036;6.740;2022-11-15T09:15:58;11.10;99.90
57833;DHT22;43667;53.036;6.740;2022-11-15T09:18:24;11.10;99.90
57833;DHT22;43667;53.036;6.740;2022-11-15T09:20:50;11.20;99.90
57833;DHT22;43667;53.036;6.740;2022-11-15T09:23:16;11.20;99.90
57833;DHT22;43667;53.036;6.740;2022-11-15T09:25:41;11.20;99.90
57833;DHT22;43667;53.036;6.740;2022-11-15T09:28:07;11.20;99.90
57833;DHT22;43667;53.036;6.740;2022-11-15T09:30:33;11.30;99.90
57833;DHT22;43667;53.036;6.740;2022-11-15T09:32:59;11.30;99.90
57833;DHT22;43667;53.036;6.740;2022-11-15T09:35:31;11.30;99.90
57833;DHT22;43667;53.036;6.740;2022-11-15T09:37:57;11.40;99.90
57833;DHT22;43667;53.036;6.740;2022-11-15T09:40:23;11.40;99.90
57833;DHT22;43667;53.036;6.740;2022-11-15T09:43:03;11.50;99.90
57833;DHT22;43667;53.036;6.740;2022-11-15T09:46:03;11.60;99.90
57833;DHT22;43667;53.036;6.740;2022-11-15T09:48:51;11.60;99.90
57833;DHT22;43667;53.036;6.740;2022-11-15T09:51:38;11.60;99.90
57833;DHT22;43667;53.036;6.740;2022-11-15T09:57:11;11.70;99.90
57833;DHT22;43667;53.036;6.740;2022-11-15T09:59:41;11.70;99.90
57833;DHT22;43667;53.036;6.740;2022-11-15T10:04:57;11.70;99.90
57833;DHT22;43667;53.036;6.740;2022-11-15T10:07:34;11.70;99.90
57833;DHT22;43667;53.036;6.740;2022-11-15T10:10:25;11.70;99.90
57833;DHT22;43667;53.036;6.740;2022-11-15T10:12:53;11.70;99.90
57833;DHT22;43667;53.036;6.740;2022-11-15T10:15:19;11.70;99.90
57833;DHT22;43667;53.036;6.740;2022-11-15T10:20:59;11.70;99.90
57833;DHT22;43667;53.036;6.740;2022-11-15T10:23:27;11.70;99.90
57833;DHT22;43667;53.036;6.740;2022-11-15T10:25:55;11.70;99.90
57833;DHT22;43667;53.036;6.740;2022-11-15T10:28:28;11.70;99.90
57833;DHT22;43667;53.036;6.740;2022-11-15T10:30:56;11.70;99.90
57833;DHT22;43667;53.036;6.740;2022-11-15T10:33:32;11.70;99.90
57833;DHT22;43667;53.036;6.740;2022-11-15T10:38:52;11.70;99.90
57833;DHT22;43667;53.036;6.740;2022-11-15T10:41:21;11.60;99.90
57833;DHT22;43667;53.036;6.740;2022-11-15T10:46:27;11.60;99.90
57833;DHT22;43667;53.036;6.740;2022-11-15T10:48:53;11.60;99.90
57833;DHT22;43667;53.036;6.740;2022-11-15T10:51:27;11.60;99.90
57833;DHT22;43667;53.036;6.740;2022-11-15T10:53:56;11.60;99.90
57833;DHT22;43667;53.036;6.740;2022-11-15T10:56:24;11.60;99.90
57833;DHT22;43667;53.036;6.740;2022-11-15T10:58:56;11.60;99.90
57833;DHT22;43667;53.036;6.740;2022-11-15T11:01:25;11.70;99.90
57833;DHT22;43667;53.036;6.740;2022-11-15T11:04:20;11.80;99.90
57833;DHT22;43667;53.036;6.740;2022-11-15T11:06:52;11.90;99.90
57833;DHT22;43667;53.036;6.740;2022-11-15T11:11:53;11.90;99.90
57833;DHT22;43667;53.036;6.740;2022-11-15T11:14:25;12.00;99.90
57833;DHT22;43667;53.036;6.740;2022-11-15T11:17:05;12.00;99.90
57833;DHT22;43667;53.036;6.740;2022-11-15T11:19:44;12.00;99.90
57833;DHT22;43667;53.036;6.740;2022-11-15T11:22:19;12.10;99.90
57833;DHT22;43667;53.036;6.740;2022-11-15T11:24:56;12.10;99.90
57833;DHT22;43667;53.036;6.740;2022-11-15T11:30:32;12.40;99.90
57833;DHT22;43667;53.036;6.740;2022-11-15T11:33:13;12.60;99.90
57833;DHT22;43667;53.036;6.740;2022-11-15T11:35:59;12.70;99.90
57833;DHT22;43667;53.036;6.740;2022-11-15T11:46:48;13.00;99.90
57833;DHT22;43667;53.036;6.740;2022-11-15T11:49:20;13.10;99.90
57833;DHT22;43667;53.036;6.740;2022-11-15T11:51:54;13.00;99.90
57833;DHT22;43667;53.036;6.740;2022-11-15T11:54:35;13.10;99.90
57833;DHT22;43667;53.036;6.740;2022-11-15T11:57:07;13.20;99.90
57833;DHT22;43667;53.036;6.740;2022-11-15T11:59:56;13.30;99.90
57833;DHT22;43667;53.036;6.740;2022-11-15T12:02:30;13.20;99.90
57833;DHT22;43667;53.036;6.740;2022-11-15T12:07:50;13.10;99.90
57833;DHT22;43667;53.036;6.740;2022-11-15T12:10:29;13.00;99.90
57833;DHT22;43667;53.036;6.740;2022-11-15T12:13:00;12.90;99.90
57833;DHT22;43667;53.036;6.740;2022-11-15T12:15:45;12.80;99.90
57833;DHT22;43667;53.036;6.740;2022-11-15T12:18:15;12.80;99.90
57833;DHT22;43667;53.036;6.740;2022-11-15T12:20:52;12.90;99.90
57833;DHT22;43667;53.036;6.740;2022-11-15T12:23:27;12.90;99.90
57833;DHT22;43667;53.036;6.740;2022-11-15T12:26:08;12.90;99.90
57833;DHT22;43667;53.036;6.740;2022-11-15T12:28:57;12.90;99.90
57833;DHT22;43667;53.036;6.740;2022-11-15T12:31:43;12.90;99.90
57833;DHT22;43667;53.036;6.740;2022-11-15T12:36:49;12.80;99.90
57833;DHT22;43667;53.036;6.740;2022-11-15T12:39:16;12.70;99.90
57833;DHT22;43667;53.036;6.740;2022-11-15T12:41:44;12.70;99.90
57833;DHT22;43667;53.036;6.740;2022-11-15T12:44:12;12.70;99.90
57833;DHT22;43667;53.036;6.740;2022-11-15T13:17:48;13.10;99.90
57833;DHT22;43667;53.036;6.740;2022-11-15T13:22:44;13.10;99.90
57833;DHT22;43667;53.036;6.740;2022-11-15T13:30:39;13.00;99.90
57833;DHT22;43667;53.036;6.740;2022-11-15T13:33:13;12.90;99.90
57833;DHT22;43667;53.036;6.740;2022-11-15T13:35:41;12.90;99.90
57833;DHT22;43667;53.036;6.740;2022-11-15T13:38:38;12.90;99.90
57833;DHT22;43667;53.036;6.740;2022-11-15T13:41:21;12.80;99.90
57833;DHT22;43667;53.036;6.740;2022-11-15T13:43:48;12.80;99.90
57833;DHT22;43667;53.036;6.740;2022-11-15T13:46:18;12.70;99.90
57833;DHT22;43667;53.036;6.740;2022-11-15T13:48:48;12.70;99.90
57833;DHT22;43667;53.036;6.740;2022-11-15T13:51:21;12.60;99.90
57833;DHT22;43667;53.036;6.740;2022-11-15T13:54:00;12.60;99.90
57833;DHT22;43667;53.036;6.740;2022-11-15T13:56:28;12.50;99.90
57833;DHT22;43667;53.036;6.740;2022-11-15T13:58:54;12.40;99.90
57833;DHT22;43667;53.036;6.740;2022-11-15T14:01:21;12.40;99.90
57833;DHT22;43667;53.036;6.740;2022-11-15T14:03:54;12.40;99.90
57833;DHT22;43667;53.036;6.740;2022-11-15T14:06:23;12.30;99.90
57833;DHT22;43667;53.036;6.740;2022-11-15T14:11:32;12.30;99.90
57833;DHT22;43667;53.036;6.740;2022-11-15T14:16:44;12.20;99.90
57833;DHT22;43667;53.036;6.740;2022-11-15T14:19:12;12.20;99.90
57833;DHT22;43667;53.036;6.740;2022-11-15T14:22:18;12.20;99.90
57833;DHT22;43667;53.036;6.740;2022-11-15T14:27:31;12.10;99.90
57833;DHT22;43667;53.036;6.740;2022-11-15T14:29:57;12.00;99.90
57833;DHT22;43667;53.036;6.740;2022-11-15T14:32:25;12.00;99.90
57833;DHT22;43667;53.036;6.740;2022-11-15T14:34:56;12.00;99.90
57833;DHT22;43667;53.036;6.740;2022-11-15T14:37:25;11.90;99.90
57833;DHT22;43667;53.036;6.740;2022-11-15T14:39:52;11.90;99.90
57833;DHT22;43667;53.036;6.740;2022-11-15T14:42:18;11.80;99.90
57833;DHT22;43667;53.036;6.740;2022-11-15T14:44:44;11.70;99.90
57833;DHT22;43667;53.036;6.740;2022-11-15T14:47:09;11.70;99.90
57833;DHT22;43667;53.036;6.740;2022-11-15T14:49:35;11.60;99.90
57833;DHT22;43667;53.036;6.740;2022-11-15T14:52:01;11.60;99.90
57833;DHT22;43667;53.036;6.740;2022-11-15T14:54:26;11.50;99.90
57833;DHT22;43667;53.036;6.740;2022-11-15T14:56:52;11.50;99.90
57833;DHT22;43667;53.036;6.740;2022-11-15T14:59:17;11.40;99.90
57833;DHT22;43667;53.036;6.740;2022-11-15T15:01:43;11.30;99.90
57833;DHT22;43667;53.036;6.740;2022-11-15T15:04:10;11.30;99.90
57833;DHT22;43667;53.036;6.740;2022-11-15T15:06:36;11.20;99.90
57833;DHT22;43667;53.036;6.740;2022-11-15T15:09:02;11.10;99.90
57833;DHT22;43667;53.036;6.740;2022-11-15T15:11:30;11.10;99.90
57833;DHT22;43667;53.036;6.740;2022-11-15T15:13:56;11.00;99.90
57833;DHT22;43667;53.036;6.740;2022-11-15T15:16:24;11.00;99.90
57833;DHT22;43667;53.036;6.740;2022-11-15T15:18:50;10.90;99.90
57833;DHT22;43667;53.036;6.740;2022-11-15T15:21:24;10.80;99.90
57833;DHT22;43667;53.036;6.740;2022-11-15T15:23:51;10.70;99.90
57833;DHT22;43667;53.036;6.740;2022-11-15T15:26:19;10.70;99.90
57833;DHT22;43667;53.036;6.740;2022-11-15T15:28:44;10.60;99.90
57833;DHT22;43667;53.036;6.740;2022-11-15T15:31:10;10.60;99.90
57833;DHT22;43667;53.036;6.740;2022-11-15T15:33:37;10.60;99.90
57833;DHT22;43667;53.036;6.740;2022-11-15T15:36:03;10.50;99.90
57833;DHT22;43667;53.036;6.740;2022-11-15T15:38:28;10.50;99.90
57833;DHT22;43667;53.036;6.740;2022-11-15T15:40:54;10.50;99.90
57833;DHT22;43667;53.036;6.740;2022-11-15T15:43:20;10.50;99.90
57833;DHT22;43667;53.036;6.740;2022-11-15T15:45:46;10.50;99.90
57833;DHT22;43667;53.036;6.740;2022-11-15T15:48:16;10.50;99.90
57833;DHT22;43667;53.036;6.740;2022-11-15T15:50:42;10.60;99.90
57833;DHT22;43667;53.036;6.740;2022-11-15T15:53:09;10.50;99.90
57833;DHT22;43667;53.036;6.740;2022-11-15T15:55:36;10.50;99.90
57833;DHT22;43667;53.036;6.740;2022-11-15T15:58:02;10.50;99.90
57833;DHT22;43667;53.036;6.740;2022-11-15T16:00:28;10.50;99.90
57833;DHT22;43667;53.036;6.740;2022-11-15T16:02:54;10.50;99.90
57833;DHT22;43667;53.036;6.740;2022-11-15T16:05:19;10.50;99.90
57833;DHT22;43667;53.036;6.740;2022-11-15T16:07:46;10.50;99.90
57833;DHT22;43667;53.036;6.740;2022-11-15T16:10:33;10.50;99.90
57833;DHT22;43667;53.036;6.740;2022-11-15T16:13:02;10.50;99.90
57833;DHT22;43667;53.036;6.740;2022-11-15T16:15:30;10.50;99.90
57833;DHT22;43667;53.036;6.740;2022-11-15T16:17:57;10.50;99.90
57833;DHT22;43667;53.036;6.740;2022-11-15T16:22:58;10.50;99.90
57833;DHT22;43667;53.036;6.740;2022-11-15T16:25:24;10.50;99.90
57833;DHT22;43667;53.036;6.740;2022-11-15T16:27:50;10.50;99.90
57833;DHT22;43667;53.036;6.740;2022-11-15T16:30:18;10.40;99.90
57833;DHT22;43667;53.036;6.740;2022-11-15T16:32:44;10.50;99.90
57833;DHT22;43667;53.036;6.740;2022-11-15T16:35:14;10.50;99.90
57833;DHT22;43667;53.036;6.740;2022-11-15T16:37:41;10.50;99.90
57833;DHT22;43667;53.036;6.740;2022-11-15T16:42:47;10.50;99.90
57833;DHT22;43667;53.036;6.740;2022-11-15T16:45:13;10.50;99.90
57833;DHT22;43667;53.036;6.740;2022-11-15T16:47:39;10.50;99.90
57833;DHT22;43667;53.036;6.740;2022-11-15T16:50:05;10.50;99.90
57833;DHT22;43667;53.036;6.740;2022-11-15T16:52:30;10.50;99.90
57833;DHT22;43667;53.036;6.740;2022-11-15T16:54:56;10.50;99.90
57833;DHT22;43667;53.036;6.740;2022-11-15T16:57:21;10.50;99.90
57833;DHT22;43667;53.036;6.740;2022-11-15T16:59:47;10.50;99.90
57833;DHT22;43667;53.036;6.740;2022-11-15T17:02:13;10.50;99.90
57833;DHT22;43667;53.036;6.740;2022-11-15T17:04:38;10.50;99.90
57833;DHT22;43667;53.036;6.740;2022-11-15T17:07:04;10.50;99.90
57833;DHT22;43667;53.036;6.740;2022-11-15T17:09:29;10.50;99.90
57833;DHT22;43667;53.036;6.740;2022-11-15T17:11:55;10.50;99.90
57833;DHT22;43667;53.036;6.740;2022-11-15T17:14:21;10.60;99.90
57833;DHT22;43667;53.036;6.740;2022-11-15T17:16:46;10.60;99.90
57833;DHT22;43667;53.036;6.740;2022-11-15T17:19:14;10.60;99.90
57833;DHT22;43667;53.036;6.740;2022-11-15T17:21:40;10.60;99.90
57833;DHT22;43667;53.036;6.740;2022-11-15T17:24:06;10.60;99.90
57833;DHT22;43667;53.036;6.740;2022-11-15T17:26:32;10.60;99.90
57833;DHT22;43667;53.036;6.740;2022-11-15T17:28:57;10.50;99.90
57833;DHT22;43667;53.036;6.740;2022-11-15T17:31:25;10.60;99.90
57833;DHT22;43667;53.036;6.740;2022-11-15T17:33:51;10.50;99.90
57833;DHT22;43667;53.036;6.740;2022-11-15T17:36:17;10.50;99.90
57833;DHT22;43667;53.036;6.740;2022-11-15T17:38:43;10.50;99.90
57833;DHT22;43667;53.036;6.740;2022-11-15T17:41:11;10.50;99.90
57833;DHT22;43667;53.036;6.740;2022-11-15T17:43:38;10.50;99.90
57833;DHT22;43667;53.036;6.740;2022-11-15T17:46:07;10.50;99.90
57833;DHT22;43667;53.036;6.740;2022-11-15T17:48:32;10.50;99.90
57833;DHT22;43667;53.036;6.740;2022-11-15T17:51:04;10.50;99.90